createdAt,value
2022-11-09T00:01:52.381Z,100529.38
2022-11-09T00:04:18.716Z,100528.00
2022-11-09T00:06:45.198Z,100537.97
2022-11-09T00:09:11.535Z,100537.97
2022-11-09T00:11:37.890Z,100538.22
2022-11-09T00:14:04.511Z,100541.13
2022-11-09T00:16:30.808Z,100536.00
2022-11-09T00:18:57.165Z,100532.72
2022-11-09T00:21:23.495Z,100540.53
2022-11-09T00:23:49.855Z,100530.28
2022-11-09T00:26:16.155Z,100541.28
2022-11-09T00:28:42.445Z,100536.13
2022-11-09T00:31:08.975Z,100531.59
2022-11-09T00:33:35.207Z,100535.31
2022-11-09T00:36:01.591Z,100527.50
2022-11-09T00:38:28.172Z,100538.28
2022-11-09T00:40:54.442Z,100528.53
2022-11-09T00:43:20.976Z,100540.38
2022-11-09T00:45:47.613Z,100542.25
2022-11-09T00:48:13.900Z,100545.22
2022-11-09T00:50:40.175Z,100547.91
2022-11-09T00:53:06.495Z,100543.53
2022-11-09T00:55:32.818Z,100544.63
2022-11-09T00:57:59.150Z,100537.59
2022-11-09T01:00:25.456Z,100531.38
2022-11-09T01:02:51.843Z,100533.53
2022-11-09T01:05:18.171Z,100538.06
2022-11-09T01:07:44.651Z,100540.22
2022-11-09T01:10:11.045Z,100532.13
2022-11-09T01:12:37.380Z,100533.75
2022-11-09T01:15:03.721Z,100535.84
2022-11-09T01:17:30.000Z,100533.16
2022-11-09T01:19:56.310Z,100544.16
2022-11-09T01:22:22.585Z,100533.63
2022-11-09T01:24:48.996Z,100532.00
2022-11-09T01:27:15.282Z,100526.63
2022-11-09T01:29:41.724Z,100530.34
2022-11-09T01:32:08.079Z,100525.78
2022-11-09T01:34:34.975Z,100531.41
2022-11-09T01:37:01.645Z,100540.56
2022-11-09T01:39:27.908Z,100543.25
2022-11-09T01:41:54.201Z,100537.03
2022-11-09T01:44:20.586Z,100534.34
2022-11-09T01:46:46.954Z,100530.03
2022-11-09T01:49:13.451Z,100533.78
2022-11-09T01:51:40.528Z,100533.78
2022-11-09T01:54:06.988Z,100534.03
2022-11-09T01:56:33.334Z,100538.34
2022-11-09T01:58:59.635Z,100546.88
2022-11-09T02:01:25.927Z,100541.28
2022-11-09T02:03:52.482Z,100539.63
2022-11-09T02:06:20.077Z,100542.56
2022-11-09T02:08:46.611Z,100538.00
2022-11-09T02:11:12.932Z,100536.94
2022-11-09T02:13:39.396Z,100532.88
2022-11-09T02:16:05.774Z,100532.88
2022-11-09T02:18:32.152Z,100521.25
2022-11-09T02:20:58.577Z,100515.88
2022-11-09T02:23:25.069Z,100511.56
2022-11-09T02:25:51.371Z,100509.94
2022-11-09T02:28:17.720Z,100501.03
2022-11-09T02:30:44.395Z,100505.63
2022-11-09T02:33:10.732Z,100504.78
2022-11-09T02:35:37.080Z,100498.56
2022-11-09T02:38:03.396Z,100500.47
2022-11-09T02:40:29.693Z,100504.19
2022-11-09T02:42:55.981Z,100497.78
2022-11-09T02:48:03.989Z,100486.41
2022-11-09T02:50:30.513Z,100489.09
2022-11-09T02:52:56.895Z,100485.59
2022-11-09T02:55:23.357Z,100479.41
2022-11-09T02:57:49.628Z,100479.41
2022-11-09T03:00:15.911Z,100492.31
2022-11-09T03:02:42.293Z,100487.72
2022-11-09T03:05:08.622Z,100486.91
2022-11-09T03:07:34.968Z,100487.16
2022-11-09T03:10:01.334Z,100486.91
2022-11-09T03:12:27.697Z,100494.16
2022-11-09T03:14:54.293Z,100496.03
2022-11-09T03:17:20.650Z,100492.31
2022-11-09T03:19:47.040Z,100491.16
2022-11-09T03:22:13.280Z,100492.78
2022-11-09T03:24:39.573Z,100497.31
2022-11-09T03:27:05.847Z,100503.53
2022-11-09T03:29:32.269Z,100484.94
2022-11-09T03:31:58.529Z,100486.00
2022-11-09T03:34:24.900Z,100493.00
2022-11-09T03:36:51.273Z,100502.38
2022-11-09T03:39:17.659Z,100501.31
2022-11-09T03:41:43.905Z,100502.16
2022-11-09T03:44:10.167Z,100496.75
2022-11-09T03:46:36.460Z,100503.22
2022-11-09T03:49:02.754Z,100502.38
2022-11-09T03:51:29.002Z,100499.69
2022-11-09T03:53:55.292Z,100497.84
2022-11-09T03:56:21.541Z,100504.47
2022-11-09T03:58:47.872Z,100503.69
2022-11-09T04:01:14.400Z,100510.69
2022-11-09T04:03:40.717Z,100503.69
2022-11-09T04:06:07.038Z,100500.16
2022-11-09T04:08:33.299Z,100498.53
2022-11-09T04:10:59.639Z,100497.94
2022-11-09T04:13:25.945Z,100511.41
2022-11-09T04:15:52.285Z,100506.03
2022-11-09T04:18:18.612Z,100497.94
2022-11-09T04:20:44.949Z,100491.75
2022-11-09T04:23:11.237Z,100493.63
2022-11-09T04:25:37.560Z,100485.78
2022-11-09T04:28:03.821Z,100475.03
2022-11-09T04:30:30.135Z,100468.59
2022-11-09T04:32:56.437Z,100467.53
2022-11-09T04:35:22.676Z,100465.09
2022-11-09T04:37:48.989Z,100456.78
2022-11-09T04:40:15.263Z,100446.47
2022-11-09T04:42:41.624Z,100445.19
2022-11-09T04:45:07.894Z,100452.91
2022-11-09T04:47:34.253Z,100461.00
2022-11-09T04:50:00.543Z,100470.69
2022-11-09T04:52:26.992Z,100474.47
2022-11-09T04:54:53.300Z,100472.84
2022-11-09T04:57:19.652Z,100472.84
2022-11-09T04:59:46.173Z,100474.69
2022-11-09T05:02:12.483Z,100484.63
2022-11-09T05:04:38.793Z,100480.06
2022-11-09T05:07:05.113Z,100481.38
2022-11-09T05:09:31.472Z,100484.63
2022-11-09T05:11:57.935Z,100488.16
2022-11-09T05:14:24.392Z,100488.97
2022-11-09T05:16:50.663Z,100499.75
2022-11-09T05:19:16.947Z,100498.91
2022-11-09T05:21:43.256Z,100494.38
2022-11-09T05:24:09.566Z,100490.28
2022-11-09T05:26:36.159Z,100480.66
2022-11-09T05:29:02.465Z,100483.59
2022-11-09T05:31:28.826Z,100483.25
2022-11-09T05:33:55.172Z,100460.41
2022-11-09T05:36:21.474Z,100471.16
2022-11-09T05:38:47.949Z,100481.69
2022-11-09T05:41:14.413Z,100482.53
2022-11-09T05:43:40.756Z,100472.59
2022-11-09T05:46:07.190Z,100472.00
2022-11-09T05:48:33.452Z,100476.56
2022-11-09T05:50:59.726Z,100480.06
2022-11-09T05:53:26.049Z,100483.00
2022-11-09T05:55:52.326Z,100496.22
2022-11-09T05:58:18.629Z,100488.16
2022-11-09T06:00:45.034Z,100483.00
2022-11-09T06:03:11.404Z,100481.69
2022-11-09T06:05:37.695Z,100478.69
2022-11-09T06:08:04.000Z,100480.53
2022-11-09T06:10:30.285Z,100491.06
2022-11-09T06:12:56.563Z,100502.06
2022-11-09T06:15:22.821Z,100514.97
2022-11-09T06:20:25.023Z,100514.00
2022-11-09T06:22:51.484Z,100519.28
2022-11-09T06:25:17.741Z,100548.91
2022-11-09T06:27:44.360Z,100555.09
2022-11-09T06:30:10.864Z,100561.53
2022-11-09T06:32:38.288Z,100564.47
2022-11-09T06:35:04.815Z,100558.59
2022-11-09T06:37:31.112Z,100566.09
2022-11-09T06:39:57.405Z,100559.66
2022-11-09T06:42:23.855Z,100561.53
2022-11-09T06:44:50.179Z,100549.50
2022-11-09T06:47:16.428Z,100541.41
2022-11-09T06:49:42.737Z,100536.03
2022-11-09T06:52:09.028Z,100541.88
2022-11-09T06:54:35.320Z,100551.59
2022-11-09T06:57:01.588Z,100558.38
2022-11-09T06:59:27.877Z,100557.06
2022-11-09T07:04:23.355Z,100551.03
2022-11-09T07:06:49.798Z,100566.09
2022-11-09T07:09:16.139Z,100562.81
2022-11-09T07:11:42.507Z,100557.44
2022-11-09T07:14:08.838Z,100552.41
2022-11-09T07:16:35.211Z,100556.97
2022-11-09T07:19:01.528Z,100551.81
2022-11-09T07:21:28.340Z,100560.72
2022-11-09T07:23:54.766Z,100555.81
2022-11-09T07:26:21.192Z,100552.06
2022-11-09T07:28:47.604Z,100554.75
2022-11-09T07:31:13.859Z,100554.50
2022-11-09T07:33:40.185Z,100558.25
2022-11-09T07:36:06.508Z,100563.88
2022-11-09T07:38:32.773Z,100554.75
2022-11-09T07:40:59.095Z,100556.41
2022-11-09T07:43:25.456Z,100559.09
2022-11-09T07:45:51.779Z,100549.63
2022-11-09T07:48:18.106Z,100549.38
2022-11-09T07:50:44.381Z,100551.25
2022-11-09T07:53:10.921Z,100551.50
2022-11-09T07:55:37.285Z,100561.78
2022-11-09T07:58:03.635Z,100563.19
2022-11-09T08:00:30.140Z,100554.28
2022-11-09T08:05:25.656Z,100560.97
2022-11-09T08:07:51.935Z,100567.41
2022-11-09T08:10:18.412Z,100561.19
2022-11-09T08:12:44.761Z,100558.03
2022-11-09T08:15:11.141Z,100559.09
2022-11-09T08:17:37.912Z,100562.81
2022-11-09T08:20:04.218Z,100566.56
2022-11-09T08:22:30.727Z,100563.88
2022-11-09T08:24:57.037Z,100565.50
2022-11-09T08:27:23.333Z,100573.84
2022-11-09T08:29:49.625Z,100577.56
2022-11-09T08:32:15.921Z,100572.41
2022-11-09T08:34:42.360Z,100577.34
2022-11-09T08:37:08.683Z,100584.84
2022-11-09T08:39:35.138Z,100587.78
2022-11-09T08:42:01.412Z,100598.88
2022-11-09T08:47:07.200Z,100596.41
2022-11-09T08:49:33.655Z,100597.25
2022-11-09T08:51:59.913Z,100608.47
2022-11-09T08:54:26.246Z,100626.25
2022-11-09T08:56:52.484Z,100619.22
2022-11-09T08:59:18.916Z,100637.84
2022-11-09T09:01:45.397Z,100637.00
2022-11-09T09:04:11.835Z,100645.69
2022-11-09T09:06:38.145Z,100637.00
2022-11-09T09:09:04.580Z,100638.31
2022-11-09T09:11:30.940Z,100640.19
2022-11-09T09:13:57.316Z,100643.69
2022-11-09T09:16:23.708Z,100645.34
2022-11-09T09:18:50.097Z,100646.38
2022-11-09T09:21:16.412Z,100654.94
2022-11-09T09:23:42.710Z,100647.44
2022-11-09T09:26:09.073Z,100649.56
2022-11-09T09:28:35.327Z,100645.47
2022-11-09T09:31:01.568Z,100651.41
2022-11-09T09:33:27.875Z,100644.19
2022-11-09T09:35:54.173Z,100644.97
2022-11-09T09:38:20.799Z,100643.34
2022-11-09T09:40:47.208Z,100636.09
2022-11-09T09:43:13.693Z,100637.13
2022-11-09T09:45:40.185Z,100640.09
2022-11-09T09:48:06.423Z,100646.50
2022-11-09T09:50:32.836Z,100645.19
2022-11-09T09:53:22.743Z,100645.19
2022-11-09T09:55:45.523Z,100640.31
2022-11-09T09:58:11.809Z,100640.88
2022-11-09T10:03:07.250Z,100635.50
2022-11-09T10:05:33.777Z,100635.72
2022-11-09T10:10:42.201Z,100645.09
2022-11-09T10:15:48.185Z,100652.94
2022-11-09T10:18:14.692Z,100655.84
2022-11-09T10:20:40.974Z,100662.31
2022-11-09T10:23:07.328Z,100654.22
2022-11-09T10:28:20.111Z,100655.53
2022-11-09T10:30:46.484Z,100657.16
2022-11-09T10:33:12.743Z,100651.19
2022-11-09T10:35:38.992Z,100653.66
2022-11-09T10:38:05.272Z,100638.53
2022-11-09T10:40:31.541Z,100646.63
2022-11-09T10:42:58.103Z,100641.25
2022-11-09T10:45:24.596Z,100643.34
2022-11-09T10:47:50.924Z,100637.16
2022-11-09T10:50:17.217Z,100643.13
2022-11-09T10:52:47.581Z,100634.47
2022-11-09T10:55:14.197Z,100629.69
2022-11-09T10:57:40.565Z,100622.06
2022-11-09T11:00:06.802Z,100621.59
2022-11-09T11:02:33.308Z,100617.25
2022-11-09T11:04:59.672Z,100623.13
2022-11-09T11:07:26.006Z,100617.50
2022-11-09T11:09:52.345Z,100612.69
2022-11-09T11:12:18.684Z,100602.41
2022-11-09T11:14:44.965Z,100593.31
2022-11-09T11:17:11.267Z,100590.59
2022-11-09T11:19:37.689Z,100598.91
2022-11-09T11:22:03.972Z,100596.78
2022-11-09T11:24:30.367Z,100597.25
2022-11-09T11:26:56.659Z,100602.16
2022-11-09T11:29:22.889Z,100585.91
2022-11-09T11:31:49.277Z,100602.41
2022-11-09T11:34:32.057Z,100588.94
2022-11-09T11:37:02.100Z,100601.38
2022-11-09T11:39:29.849Z,100594.00
2022-11-09T11:41:56.183Z,100590.84
2022-11-09T11:44:22.839Z,100584.84
2022-11-09T11:46:49.131Z,100594.00
2022-11-09T11:49:15.471Z,100593.41
2022-11-09T11:51:41.755Z,100585.69
2022-11-09T11:54:08.087Z,100589.44
2022-11-09T11:56:34.442Z,100590.72
2022-11-09T11:59:01.724Z,100578.09
2022-11-09T12:01:28.111Z,100580.53
2022-11-09T12:03:54.368Z,100579.38
2022-11-09T12:06:20.621Z,100577.03
2022-11-09T12:08:46.991Z,100579.97
2022-11-09T12:11:13.288Z,100578.09
2022-11-09T12:13:39.654Z,100573.88
2022-11-09T12:16:06.497Z,100571.41
2022-11-09T12:18:32.947Z,100575.41
2022-11-09T12:20:59.228Z,100565.69
2022-11-09T12:23:25.731Z,100553.53
2022-11-09T12:25:52.056Z,100567.22
2022-11-09T12:28:18.496Z,100559.97
2022-11-09T12:30:44.835Z,100559.38
2022-11-09T12:33:11.154Z,100554.00
2022-11-09T12:35:37.543Z,100557.16
2022-11-09T12:38:03.981Z,100553.88
2022-11-09T12:40:30.293Z,100557.97
2022-11-09T12:42:56.636Z,100551.19
2022-11-09T12:45:22.942Z,100563.97
2022-11-09T12:47:49.219Z,100559.03
2022-11-09T12:50:15.533Z,100546.38
2022-11-09T12:52:41.858Z,100549.69
2022-11-09T12:55:08.192Z,100545.38
2022-11-09T12:57:34.416Z,100543.69
2022-11-09T13:00:00.806Z,100541.28
2022-11-09T13:02:27.141Z,100556.34
2022-11-09T13:04:53.820Z,100562.78
2022-11-09T13:07:20.258Z,100553.28
2022-11-09T13:09:46.616Z,100549.56
2022-11-09T13:12:16.047Z,100538.91
2022-11-09T13:14:42.598Z,100553.88
2022-11-09T13:17:09.251Z,100553.66
2022-11-09T13:19:35.499Z,100551.31
2022-11-09T13:22:01.768Z,100556.13
2022-11-09T13:24:28.003Z,100553.19
2022-11-09T13:26:54.261Z,100551.91
2022-11-09T13:29:20.539Z,100547.56
2022-11-09T13:31:47.012Z,100553.53
2022-11-09T13:34:13.304Z,100558.31
2022-11-09T13:36:39.576Z,100556.91
2022-11-09T13:39:05.858Z,100557.97
2022-11-09T13:41:32.280Z,100552.81
2022-11-09T13:43:58.646Z,100554.47
2022-11-09T13:46:24.873Z,100555.53
2022-11-09T13:48:51.156Z,100556.34
2022-11-09T13:51:17.391Z,100563.59
2022-11-09T13:53:43.669Z,100566.50
2022-11-09T13:56:09.921Z,100566.13
2022-11-09T13:58:36.456Z,100565.31
2022-11-09T14:01:02.798Z,100568.63
2022-11-09T14:03:29.051Z,100568.81
2022-11-09T14:05:55.431Z,100568.25
2022-11-09T14:08:22.229Z,100578.19
2022-11-09T14:10:48.795Z,100580.03
2022-11-09T14:13:15.194Z,100581.44
2022-11-09T14:15:41.470Z,100567.75
2022-11-09T14:18:07.884Z,100575.41
2022-11-09T14:20:34.164Z,100574.94
2022-11-09T14:23:00.548Z,100573.28
2022-11-09T14:25:26.796Z,100572.25
2022-11-09T14:27:53.318Z,100568.50
2022-11-09T14:30:19.579Z,100565.81
2022-11-09T14:32:45.827Z,100568.50
2022-11-09T14:35:12.156Z,100572.25
2022-11-09T14:37:38.409Z,100575.75
2022-11-09T14:40:04.813Z,100573.53
2022-11-09T14:45:07.400Z,100573.53
2022-11-09T14:47:33.725Z,100577.41
2022-11-09T14:49:59.986Z,100578.22
2022-11-09T14:52:26.384Z,100578.44
2022-11-09T14:54:52.803Z,100580.56
2022-11-09T14:57:19.596Z,100581.97
2022-11-09T14:59:46.060Z,100580.09
2022-11-09T15:02:12.342Z,100588.16
2022-11-09T15:04:38.718Z,100580.91
2022-11-09T15:07:05.325Z,100585.22
2022-11-09T15:09:31.795Z,100589.31
2022-11-09T15:11:58.092Z,100589.06
2022-11-09T15:14:24.543Z,100585.59
2022-11-09T15:16:50.805Z,100584.97
2022-11-09T15:19:17.105Z,100588.72
2022-11-09T15:21:43.451Z,100581.50
2022-11-09T15:24:09.707Z,100586.88
2022-11-09T15:26:35.935Z,100594.94
2022-11-09T15:29:02.271Z,100586.03
2022-11-09T15:31:28.821Z,100590.13
2022-11-09T15:33:55.087Z,100590.84
2022-11-09T15:36:21.372Z,100592.72
2022-11-09T15:38:47.672Z,100606.72
2022-11-09T15:41:13.951Z,100608.84
2022-11-09T15:43:40.196Z,100612.38
2022-11-09T15:46:06.437Z,100613.16
2022-11-09T15:48:32.772Z,100622.75
2022-11-09T15:50:59.052Z,100625.00
2022-11-09T15:53:25.345Z,100627.34
2022-11-09T15:55:51.629Z,100633.53
2022-11-09T15:58:18.285Z,100629.31
2022-11-09T16:00:45.064Z,100628.75
2022-11-09T16:03:11.417Z,100627.34
2022-11-09T16:05:37.641Z,100619.28
2022-11-09T16:08:04.068Z,100622.75
2022-11-09T16:10:30.304Z,100628.13
2022-11-09T16:12:56.556Z,100622.75
2022-11-09T16:15:23.075Z,100621.13
2022-11-09T16:17:49.401Z,100616.81
2022-11-09T16:20:15.676Z,100621.97
2022-11-09T16:22:42.126Z,100627.56
2022-11-09T16:25:08.432Z,100624.88
2022-11-09T16:27:49.496Z,100625.69
2022-11-09T16:30:16.771Z,100639.13
2022-11-09T16:32:43.039Z,100639.13
2022-11-09T16:35:26.161Z,100637.50
2022-11-09T16:37:52.870Z,100635.88
2022-11-09T16:42:48.420Z,100641.03
2022-11-09T16:45:14.706Z,100635.88
2022-11-09T16:47:41.111Z,100637.69
2022-11-09T16:50:07.357Z,100637.91
2022-11-09T16:52:33.777Z,100638.19
2022-11-09T16:55:00.088Z,100644.13
2022-11-09T16:57:26.416Z,100643.56
2022-11-09T16:59:52.703Z,100642.28
2022-11-09T17:02:19.002Z,100639.22
2022-11-09T17:04:45.357Z,100642.50
2022-11-09T17:07:11.634Z,100648.09
2022-11-09T17:09:38.096Z,100650.56
2022-11-09T17:12:04.479Z,100644.81
2022-11-09T17:14:30.733Z,100647.28
2022-11-09T17:16:59.989Z,100650.19
2022-11-09T17:19:26.417Z,100650.78
2022-11-09T17:21:52.679Z,100649.63
2022-11-09T17:24:18.989Z,100651.84
2022-11-09T17:26:45.295Z,100649.41
2022-11-09T17:29:11.749Z,100651.03
2022-11-09T17:31:38.069Z,100651.03
2022-11-09T17:34:04.479Z,100654.53
2022-11-09T17:36:57.354Z,100660.16
2022-11-09T17:39:17.392Z,100661.22
2022-11-09T17:41:43.662Z,100662.25
2022-11-09T17:44:09.943Z,100663.28
2022-11-09T17:46:36.256Z,100657.69
2022-11-09T17:49:07.055Z,100665.53
2022-11-09T17:51:35.922Z,100670.53
2022-11-09T17:54:02.232Z,100669.72
2022-11-09T17:56:28.496Z,100672.19
2022-11-09T17:58:55.042Z,100669.97
2022-11-09T18:01:21.367Z,100671.81
2022-11-09T18:03:47.758Z,100678.03
2022-11-09T18:06:14.050Z,100680.50
2022-11-09T18:08:40.314Z,100671.59
2022-11-09T18:16:19.535Z,100679.09
2022-11-09T18:18:45.996Z,100678.84
2022-11-09T18:21:12.340Z,100680.13
2022-11-09T18:23:38.659Z,100679.66
2022-11-09T18:26:04.954Z,100678.03
2022-11-09T18:28:31.255Z,100680.50
2022-11-09T18:30:57.484Z,100687.94
2022-11-09T18:33:23.724Z,100685.25
2022-11-09T18:35:50.428Z,100680.13
2022-11-09T18:38:19.961Z,100685.75
2022-11-09T18:40:46.450Z,100681.78
2022-11-09T18:43:12.745Z,100687.38
2022-11-09T18:45:39.002Z,100683.06
2022-11-09T18:48:05.378Z,100688.22
2022-11-09T18:50:31.651Z,100689.00
2022-11-09T18:52:58.126Z,100690.91
2022-11-09T18:55:24.415Z,100697.91
2022-11-09T18:57:50.872Z,100697.31
2022-11-09T19:00:17.154Z,100698.72
2022-11-09T19:02:43.703Z,100700.81
2022-11-09T19:05:09.988Z,100695.91
2022-11-09T19:07:36.332Z,100699.63
2022-11-09T19:10:02.630Z,100710.75
2022-11-09T19:12:28.887Z,100699.41
2022-11-09T19:14:55.204Z,100709.34
2022-11-09T19:17:21.484Z,100706.66
2022-11-09T19:19:47.793Z,100710.41
2022-11-09T19:22:14.080Z,100716.81
2022-11-09T19:24:40.405Z,100708.53
2022-11-09T19:27:06.692Z,100721.16
2022-11-09T19:29:33.533Z,100719.50
2022-11-09T19:31:59.817Z,100718.47
2022-11-09T19:34:26.126Z,100731.69
2022-11-09T19:36:52.441Z,100734.59
2022-11-09T19:39:18.756Z,100737.72
2022-11-09T19:41:45.171Z,100727.81
2022-11-09T19:44:11.432Z,100741.03
2022-11-09T19:46:37.779Z,100737.72
2022-11-09T19:49:04.144Z,100738.56
2022-11-09T19:51:30.467Z,100739.41
2022-11-09T19:53:56.746Z,100740.41
2022-11-09T19:56:23.048Z,100731.31
2022-11-09T19:58:49.338Z,100744.16
2022-11-09T20:01:15.695Z,100746.63
2022-11-09T20:03:42.056Z,100749.53
2022-11-09T20:06:08.266Z,100755.75
2022-11-09T20:08:34.551Z,100756.19
2022-11-09T20:11:00.800Z,100755.75
2022-11-09T20:13:27.176Z,100766.28
2022-11-09T20:15:53.525Z,100760.53
2022-11-09T20:18:20.059Z,100759.47
2022-11-09T20:20:46.825Z,100759.25
2022-11-09T20:23:15.412Z,100758.66
2022-11-09T20:25:45.372Z,100762.97
2022-11-09T20:28:11.693Z,100767.78
2022-11-09T20:30:38.066Z,100767.78
2022-11-09T20:33:04.422Z,100773.16
2022-11-09T20:35:30.668Z,100769.41
2022-11-09T20:37:57.329Z,100774.78
2022-11-09T20:40:23.623Z,100778.53
2022-11-09T20:42:49.910Z,100766.13
2022-11-09T20:45:16.193Z,100774.78
2022-11-09T20:48:05.086Z,100775.25
2022-11-09T20:50:28.729Z,100770.69
2022-11-09T20:52:55.097Z,100772.56
2022-11-09T20:55:21.703Z,100770.91
2022-11-09T20:57:48.105Z,100774.19
2022-11-09T21:00:14.399Z,100778.75
2022-11-09T21:02:40.689Z,100791.59
2022-11-09T21:05:07.139Z,100786.22
2022-11-09T21:07:33.466Z,100781.06
2022-11-09T21:09:59.970Z,100792.44
2022-11-09T21:12:26.565Z,100796.16
2022-11-09T21:14:52.887Z,100795.13
2022-11-09T21:17:19.293Z,100799.44
2022-11-09T21:19:45.737Z,100798.59
2022-11-09T21:24:53.967Z,100795.13
2022-11-09T21:27:20.312Z,100792.44
2022-11-09T21:29:46.712Z,100796.41
2022-11-09T21:32:13.200Z,100794.06
2022-11-09T21:34:39.647Z,100797.81
2022-11-09T21:37:06.402Z,100790.78
2022-11-09T21:39:32.803Z,100788.34
2022-11-09T21:41:59.149Z,100790.78
2022-11-09T21:44:25.446Z,100787.84
2022-11-09T21:46:52.099Z,100792.44
2022-11-09T21:49:18.438Z,100795.13
2022-11-09T21:51:44.830Z,100805.03
2022-11-09T21:54:11.238Z,100803.63
2022-11-09T21:56:37.588Z,100806.94
2022-11-09T21:59:03.874Z,100805.03
2022-11-09T22:01:30.226Z,100804.47
2022-11-09T22:03:56.686Z,100809.84
2022-11-09T22:06:23.040Z,100807.72
2022-11-09T22:08:49.341Z,100807.16
2022-11-09T22:11:15.746Z,100817.06
2022-11-09T22:13:42.069Z,100818.69
2022-11-09T22:16:09.801Z,100830.50
2022-11-09T22:18:36.108Z,100826.19
2022-11-09T22:21:02.427Z,100821.03
2022-11-09T22:23:31.838Z,100830.50
2022-11-09T22:25:58.327Z,100831.34
2022-11-09T22:28:24.732Z,100835.53
2022-11-09T22:30:51.108Z,100836.31
2022-11-09T22:33:17.443Z,100833.91
2022-11-09T22:35:43.842Z,100838.22
2022-11-09T22:38:10.160Z,100830.16
2022-11-09T22:40:36.487Z,100842.75
2022-11-09T22:43:03.041Z,100847.91
2022-11-09T22:45:29.402Z,100850.59
2022-11-09T22:47:55.776Z,100846.28
2022-11-09T22:50:22.185Z,100854.91
2022-11-09T22:52:53.346Z,100847.91
2022-11-09T22:55:22.534Z,100855.41
2022-11-09T22:57:48.856Z,100852.94
2022-11-09T23:00:15.222Z,100850.25
2022-11-09T23:02:41.574Z,100854.56
2022-11-09T23:05:08.408Z,100858.09
2022-11-09T23:07:34.868Z,100858.88
2022-11-09T23:10:01.132Z,100868.00
2022-11-09T23:12:27.427Z,100861.00
2022-11-09T23:14:53.986Z,100861.00
2022-11-09T23:17:20.362Z,100857.47
2022-11-09T23:19:46.701Z,100866.59
2022-11-09T23:22:12.998Z,100866.38
2022-11-09T23:24:39.546Z,100871.13
2022-11-09T23:27:05.854Z,100870.69
2022-11-09T23:29:32.305Z,100883.53
2022-11-09T23:31:58.619Z,100877.91
2022-11-09T23:34:24.897Z,100890.78
2022-11-09T23:36:51.323Z,100888.09
2022-11-09T23:39:17.659Z,100896.38
2022-11-09T23:41:44.053Z,100895.31
2022-11-09T23:44:10.360Z,100894.28
2022-11-09T23:46:36.747Z,100895.31
2022-11-09T23:49:03.036Z,100904.22
2022-11-09T23:51:29.373Z,100903.38
2022-11-09T23:53:55.685Z,100896.97
2022-11-09T23:56:22.355Z,100897.22
2022-11-09T23:58:51.472Z,100904.22
